May City, Iowa
Current Conditions -  °F | °C
As of 12:53 PM on Thursday 30 Oct 2014 (Local Time) from KSPW Reporting Station
Clear Clear  
Wind Chill: 57°   Ceiling: Unl
Heat Index: 57°   Visibility: 10mi
Dew Point: 36°   Wind: 15mph
Humidity: 45%   Direction: 360°N
Pressure: 30.06"   Gusts: NA
Location:  43.32°N, 95.47°W
Report Text: KSPW 301753Z AUTO 36013KT 10SM CLR 14/02 A3006 RMK AO2 SLP184 T01390022 10139 20044 52013 TSNO
Loading
Personal Weather Stations






























Interactive Weather Map
Tropical Storm Tracking
New forecast layout! Learn more

10-Day Weather Forecast

Advertisements
Track Severe Weather on mobile